createdAt,value
2019-06-26T00:01:35.892Z,4.00
2019-06-26T00:04:09.463Z,4.20
2019-06-26T00:06:43.077Z,3.80
2019-06-26T00:09:16.744Z,4.22
2019-06-26T00:11:50.375Z,4.20
2019-06-26T00:14:23.954Z,5.13
2019-06-26T00:16:57.579Z,4.40
2019-06-26T00:19:31.291Z,4.43
2019-06-26T00:22:04.929Z,4.37
2019-06-26T00:24:38.526Z,4.00
2019-06-26T00:27:12.105Z,3.90
2019-06-26T00:29:47.219Z,4.15
2019-06-26T00:32:20.818Z,4.23
2019-06-26T00:34:54.405Z,4.05
2019-06-26T00:37:28.009Z,4.20
2019-06-26T00:40:01.623Z,4.57
2019-06-26T00:42:35.381Z,3.67
2019-06-26T00:45:09.119Z,4.27
2019-06-26T00:47:42.845Z,4.20
2019-06-26T00:50:16.732Z,4.50
2019-06-26T00:52:50.661Z,4.10
2019-06-26T00:55:24.231Z,4.00
2019-06-26T00:57:57.913Z,4.17
2019-06-26T01:00:36.245Z,4.30
2019-06-26T01:03:09.819Z,4.37
2019-06-26T01:05:43.539Z,4.45
2019-06-26T01:08:17.200Z,4.40
2019-06-26T01:10:50.771Z,4.20
2019-06-26T01:13:24.400Z,4.67
2019-06-26T01:15:57.979Z,4.20
2019-06-26T01:18:31.674Z,4.00
2019-06-26T01:21:05.301Z,4.30
2019-06-26T01:23:38.903Z,4.47
2019-06-26T01:26:12.491Z,5.10
2019-06-26T01:28:46.113Z,5.00
2019-06-26T01:31:19.741Z,4.90
2019-06-26T01:33:53.325Z,5.15
2019-06-26T01:36:26.921Z,4.70
2019-06-26T01:39:00.546Z,5.00
2019-06-26T01:41:34.221Z,5.37
2019-06-26T01:44:14.942Z,5.35
2019-06-26T01:46:43.267Z,5.63
2019-06-26T01:49:16.890Z,5.45
2019-06-26T01:51:50.492Z,5.53
2019-06-26T01:54:24.116Z,5.70
2019-06-26T01:56:57.701Z,5.30
2019-06-26T01:59:31.363Z,5.10
2019-06-26T02:02:05.309Z,6.50
2019-06-26T02:04:38.911Z,6.00
2019-06-26T02:07:12.523Z,5.75
2019-06-26T02:09:46.219Z,5.35
2019-06-26T02:12:19.832Z,5.23
2019-06-26T02:14:53.483Z,5.60
2019-06-26T02:17:27.177Z,5.23
2019-06-26T02:20:00.782Z,5.47
2019-06-26T02:22:34.395Z,5.43
2019-06-26T02:25:08.307Z,5.42
2019-06-26T02:27:41.909Z,5.60
2019-06-26T02:30:16.558Z,5.20
2019-06-26T02:32:51.149Z,5.08
2019-06-26T02:35:25.768Z,5.13
2019-06-26T02:37:59.446Z,5.50
2019-06-26T02:40:33.035Z,5.95
2019-06-26T02:43:07.494Z,4.80
2019-06-26T02:45:41.506Z,5.50
2019-06-26T02:48:15.146Z,5.65
2019-06-26T02:50:48.870Z,5.40
2019-06-26T02:53:22.501Z,6.20
2019-06-26T02:55:56.426Z,6.25
2019-06-26T02:58:30.522Z,6.47
2019-06-26T03:01:04.231Z,6.10
2019-06-26T03:03:37.835Z,6.50
2019-06-26T03:06:11.529Z,5.72
2019-06-26T03:08:45.183Z,6.08
2019-06-26T03:11:18.814Z,6.00
2019-06-26T03:13:52.426Z,6.37
2019-06-26T03:16:26.097Z,6.53
2019-06-26T03:18:59.755Z,6.05
2019-06-26T03:21:33.400Z,5.80
2019-06-26T03:24:07.142Z,6.47
2019-06-26T03:26:40.751Z,6.53
2019-06-26T03:29:14.447Z,6.87
2019-06-26T03:31:48.115Z,6.87
2019-06-26T03:34:21.785Z,7.10
2019-06-26T03:36:55.442Z,6.03
2019-06-26T03:39:31.969Z,6.62
2019-06-26T03:42:05.813Z,7.47
2019-06-26T03:44:39.616Z,6.53
2019-06-26T03:47:13.280Z,7.50
2019-06-26T03:49:46.923Z,7.60
2019-06-26T03:52:20.666Z,7.62
2019-06-26T03:54:55.296Z,7.80
2019-06-26T03:57:28.924Z,7.60
2019-06-26T04:00:02.660Z,7.45
2019-06-26T04:02:36.312Z,7.47
2019-06-26T04:05:10.188Z,7.50
2019-06-26T04:07:43.818Z,7.10
2019-06-26T04:10:17.468Z,7.53
2019-06-26T04:12:51.479Z,6.97
2019-06-26T04:15:37.598Z,6.78
2019-06-26T04:18:00.468Z,7.12
2019-06-26T04:20:34.189Z,7.33
2019-06-26T04:23:07.951Z,6.92
2019-06-26T04:25:41.686Z,6.85
2019-06-26T04:28:15.308Z,6.47
2019-06-26T04:30:48.900Z,6.87
2019-06-26T04:33:22.538Z,7.78
2019-06-26T04:35:56.359Z,7.58
2019-06-26T04:38:30.122Z,7.42
2019-06-26T04:41:03.730Z,7.37
2019-06-26T04:43:37.415Z,7.65
2019-06-26T04:46:10.996Z,7.00
2019-06-26T04:48:44.687Z,7.22
2019-06-26T04:51:18.236Z,7.87
2019-06-26T04:53:54.881Z,7.10
2019-06-26T04:56:27.222Z,7.62
2019-06-26T04:59:00.828Z,7.70
2019-06-26T05:01:34.593Z,7.03
2019-06-26T05:04:08.372Z,8.38
2019-06-26T05:06:41.956Z,7.50
2019-06-26T05:09:15.574Z,8.10
2019-06-26T05:11:49.208Z,7.40
2019-06-26T05:14:22.858Z,7.53
2019-06-26T05:16:56.542Z,7.97
2019-06-26T05:19:30.240Z,7.70
2019-06-26T05:22:03.917Z,7.87
2019-06-26T05:24:37.517Z,8.08
2019-06-26T05:27:11.108Z,7.65
2019-06-26T05:29:44.764Z,8.40
2019-06-26T05:32:18.320Z,8.55
2019-06-26T05:34:52.044Z,8.00
2019-06-26T05:37:25.896Z,8.50
2019-06-26T05:39:59.672Z,7.40
2019-06-26T05:42:33.346Z,8.33
2019-06-26T05:45:08.775Z,7.58
2019-06-26T05:47:42.538Z,7.75
2019-06-26T05:50:17.608Z,6.58
2019-06-26T05:52:51.270Z,6.70
2019-06-26T05:55:24.915Z,6.80
2019-06-26T05:57:58.553Z,6.37
2019-06-26T06:00:32.187Z,6.37
2019-06-26T06:03:06.091Z,7.20
2019-06-26T06:05:39.740Z,6.55
2019-06-26T06:08:13.339Z,5.50
2019-06-26T06:10:58.020Z,6.05
2019-06-26T06:13:29.766Z,5.85
2019-06-26T06:16:06.335Z,5.83
2019-06-26T06:18:38.782Z,6.30
2019-06-26T06:21:12.380Z,6.22
2019-06-26T06:23:46.020Z,6.03
2019-06-26T06:26:19.598Z,6.33
2019-06-26T06:28:53.220Z,6.17
2019-06-26T06:31:26.812Z,6.05
2019-06-26T06:34:00.419Z,6.12
2019-06-26T06:36:34.160Z,6.35
2019-06-26T06:39:07.922Z,6.05
2019-06-26T06:41:43.463Z,5.95
2019-06-26T06:44:17.114Z,5.60
2019-06-26T06:47:03.420Z,5.47
2019-06-26T06:49:25.984Z,6.35
2019-06-26T06:51:59.574Z,5.92
2019-06-26T06:54:33.213Z,5.70
2019-06-26T06:57:06.999Z,6.10
2019-06-26T06:59:40.626Z,6.35
2019-06-26T07:02:20.195Z,6.20
2019-06-26T07:04:53.794Z,5.72
2019-06-26T07:07:27.517Z,5.90
2019-06-26T07:10:01.183Z,7.10
2019-06-26T07:12:34.897Z,8.00
2019-06-26T07:15:09.719Z,6.28
2019-06-26T07:17:43.878Z,6.70
2019-06-26T07:20:17.886Z,6.87
2019-06-26T07:22:51.508Z,6.60
2019-06-26T07:25:25.162Z,6.65
2019-06-26T07:28:01.818Z,7.12
2019-06-26T07:30:34.156Z,7.00
2019-06-26T07:33:07.843Z,7.92
2019-06-26T07:35:41.415Z,7.15
2019-06-26T07:38:15.077Z,7.65
2019-06-26T07:40:49.151Z,7.33
2019-06-26T07:43:22.748Z,8.15
2019-06-26T07:45:56.386Z,8.15
2019-06-26T07:48:29.989Z,8.43
2019-06-26T07:51:03.578Z,8.35
2019-06-26T07:53:38.543Z,7.70
2019-06-26T07:56:12.205Z,9.05
2019-06-26T07:58:45.862Z,8.83
2019-06-26T08:01:19.746Z,8.60
2019-06-26T08:03:53.379Z,8.68
2019-06-26T08:06:26.981Z,9.33
2019-06-26T08:09:00.669Z,9.00
2019-06-26T08:11:34.493Z,9.23
2019-06-26T08:14:08.185Z,9.45
2019-06-26T08:16:41.801Z,9.83
2019-06-26T08:19:15.401Z,9.08
2019-06-26T08:21:49.126Z,9.33
2019-06-26T08:24:22.672Z,8.70
2019-06-26T08:26:56.387Z,9.78
2019-06-26T08:29:29.935Z,9.33
2019-06-26T08:32:03.641Z,9.38
2019-06-26T08:34:37.269Z,8.58
2019-06-26T08:37:10.860Z,8.88
2019-06-26T08:39:44.539Z,8.58
2019-06-26T08:42:18.183Z,8.43
2019-06-26T08:44:51.939Z,8.98
2019-06-26T08:47:25.706Z,9.20
2019-06-26T08:49:59.309Z,8.80
2019-06-26T08:52:32.923Z,8.08
2019-06-26T08:55:08.137Z,8.18
2019-06-26T08:57:42.528Z,8.38
2019-06-26T09:00:16.676Z,8.58
2019-06-26T09:02:50.397Z,9.18
2019-06-26T09:05:24.020Z,7.80
2019-06-26T09:07:57.831Z,7.70
2019-06-26T09:10:31.502Z,7.92
2019-06-26T09:13:05.258Z,7.58
2019-06-26T09:15:38.958Z,6.92
2019-06-26T09:18:12.709Z,7.00
2019-06-26T09:20:46.340Z,7.30
2019-06-26T09:23:20.014Z,6.87
2019-06-26T09:25:56.124Z,7.37
2019-06-26T09:28:29.813Z,7.60
2019-06-26T09:31:03.411Z,7.80
2019-06-26T09:33:42.922Z,8.08
2019-06-26T09:36:17.406Z,8.20
2019-06-26T09:38:51.145Z,7.90
2019-06-26T09:41:26.006Z,7.10
2019-06-26T09:44:01.172Z,7.92
2019-06-26T09:46:35.322Z,7.47
2019-06-26T09:49:11.806Z,7.75
2019-06-26T09:51:49.239Z,7.33
2019-06-26T09:54:23.764Z,7.47
2019-06-26T09:56:59.871Z,7.50
2019-06-26T09:59:34.826Z,7.40
2019-06-26T10:02:10.887Z,8.00
2019-06-26T10:04:44.845Z,8.00
2019-06-26T10:07:20.023Z,8.23
2019-06-26T10:09:53.690Z,7.97
2019-06-26T10:12:27.379Z,8.50
2019-06-26T10:15:01.038Z,8.38
2019-06-26T10:17:36.220Z,8.15
2019-06-26T10:20:11.365Z,8.60
2019-06-26T10:22:45.008Z,8.45
2019-06-26T10:25:18.683Z,8.90
2019-06-26T10:27:52.420Z,8.78
2019-06-26T10:30:26.200Z,8.70
2019-06-26T10:33:02.442Z,8.48
2019-06-26T10:35:36.148Z,8.80
2019-06-26T10:38:09.856Z,9.25
2019-06-26T10:40:43.511Z,8.70
2019-06-26T10:43:17.240Z,8.20
2019-06-26T10:45:51.122Z,9.08
2019-06-26T10:48:24.733Z,8.63
2019-06-26T10:50:59.203Z,8.50
2019-06-26T10:53:32.903Z,8.05
2019-06-26T10:56:06.517Z,7.95
2019-06-26T10:58:40.193Z,7.15
2019-06-26T11:01:13.794Z,8.03
2019-06-26T11:03:47.429Z,7.10
2019-06-26T11:06:21.018Z,7.28
2019-06-26T11:08:54.716Z,7.20
2019-06-26T11:11:28.379Z,7.40
2019-06-26T11:14:02.062Z,7.17
2019-06-26T11:16:35.780Z,7.25
2019-06-26T11:19:09.454Z,8.05
2019-06-26T11:21:43.184Z,7.45
2019-06-26T11:24:16.871Z,6.78
2019-06-26T11:26:50.777Z,6.67
2019-06-26T11:29:24.392Z,7.53
2019-06-26T11:31:58.076Z,7.78
2019-06-26T11:34:31.650Z,8.28
2019-06-26T11:37:05.405Z,7.37
2019-06-26T11:39:39.239Z,7.15
2019-06-26T11:42:13.890Z,7.28
2019-06-26T11:44:47.924Z,7.62
2019-06-26T11:47:21.812Z,6.80
2019-06-26T11:50:00.125Z,7.10
2019-06-26T11:52:31.748Z,7.47
2019-06-26T11:55:09.346Z,6.60
2019-06-26T11:57:44.193Z,7.50
2019-06-26T12:00:21.111Z,7.92
2019-06-26T12:02:54.911Z,6.95
2019-06-26T12:05:28.626Z,6.80
2019-06-26T12:08:02.282Z,7.58
2019-06-26T12:10:35.922Z,6.90
2019-06-26T12:13:09.617Z,7.20
2019-06-26T12:15:43.254Z,7.10
2019-06-26T12:18:16.872Z,6.67
2019-06-26T12:20:50.630Z,7.12
2019-06-26T12:23:24.231Z,6.80
2019-06-26T12:25:57.859Z,7.05
2019-06-26T12:28:31.456Z,7.05
2019-06-26T12:31:05.763Z,6.62
2019-06-26T12:33:39.348Z,8.35
2019-06-26T12:36:12.960Z,6.90
2019-06-26T12:38:46.551Z,6.60
2019-06-26T12:41:20.217Z,7.15
2019-06-26T12:43:53.880Z,7.10
2019-06-26T12:46:27.535Z,6.50
2019-06-26T12:49:01.694Z,7.30
2019-06-26T12:51:35.341Z,7.05
2019-06-26T12:54:09.067Z,7.10
2019-06-26T12:56:42.676Z,6.62
2019-06-26T12:59:16.263Z,6.50
2019-06-26T13:01:49.892Z,6.72
2019-06-26T13:04:23.554Z,6.67
2019-06-26T13:06:59.066Z,6.65
2019-06-26T13:09:32.519Z,7.50
2019-06-26T13:12:06.298Z,6.40
2019-06-26T13:14:39.897Z,8.95
2019-06-26T13:17:13.631Z,9.88
2019-06-26T13:19:47.334Z,10.23
2019-06-26T13:22:21.067Z,11.12
2019-06-26T13:24:54.697Z,11.33
2019-06-26T13:27:28.382Z,11.78
2019-06-26T13:30:02.065Z,10.60
2019-06-26T13:32:35.720Z,12.00
2019-06-26T13:35:09.746Z,12.03
2019-06-26T13:37:43.496Z,11.22
2019-06-26T13:40:17.337Z,12.55
2019-06-26T13:42:51.072Z,12.93
2019-06-26T13:45:24.773Z,12.70
2019-06-26T13:47:58.394Z,13.32
2019-06-26T13:50:32.073Z,12.35
2019-06-26T13:53:05.858Z,13.65
2019-06-26T13:55:39.936Z,13.05
2019-06-26T13:58:13.631Z,12.60
2019-06-26T14:00:47.245Z,13.45
2019-06-26T14:03:20.904Z,12.37
2019-06-26T14:05:54.610Z,12.35
2019-06-26T14:08:28.251Z,11.83
2019-06-26T14:11:02.015Z,11.85
2019-06-26T14:13:35.686Z,11.75
2019-06-26T14:16:10.040Z,12.55
2019-06-26T14:18:43.880Z,12.78
2019-06-26T14:21:25.640Z,13.03
2019-06-26T14:23:52.748Z,12.47
2019-06-26T14:26:26.505Z,12.47
2019-06-26T14:29:00.094Z,12.70
2019-06-26T14:31:33.725Z,12.35
2019-06-26T14:34:09.022Z,12.33
2019-06-26T14:36:42.656Z,12.18
2019-06-26T14:39:16.245Z,12.68
2019-06-26T14:41:50.178Z,12.05
2019-06-26T14:44:23.778Z,12.00
2019-06-26T14:46:57.710Z,12.53
2019-06-26T14:49:31.381Z,12.53
2019-06-26T14:52:05.165Z,11.83
2019-06-26T14:54:38.786Z,11.95
2019-06-26T14:57:12.387Z,12.40
2019-06-26T14:59:46.036Z,12.70
2019-06-26T15:02:19.639Z,12.60
2019-06-26T15:04:53.292Z,12.35
2019-06-26T15:07:26.970Z,11.85
2019-06-26T15:10:00.592Z,12.58
2019-06-26T15:12:34.359Z,13.18
2019-06-26T15:15:08.446Z,12.70
2019-06-26T15:17:42.133Z,12.58
2019-06-26T15:20:16.766Z,13.28
2019-06-26T15:22:50.418Z,11.85
2019-06-26T15:25:24.112Z,12.07
2019-06-26T15:27:58.014Z,12.75
2019-06-26T15:30:31.788Z,12.70
2019-06-26T15:33:05.455Z,12.30
2019-06-26T15:35:39.049Z,12.40
2019-06-26T15:38:12.688Z,12.40
2019-06-26T15:40:46.290Z,12.35
2019-06-26T15:43:19.949Z,12.70
2019-06-26T15:45:53.638Z,11.85
2019-06-26T15:48:27.330Z,12.00
2019-06-26T15:51:01.104Z,12.05
2019-06-26T15:53:34.818Z,11.73
2019-06-26T15:56:09.464Z,11.93
2019-06-26T15:58:43.035Z,11.22
2019-06-26T16:01:16.734Z,12.03
2019-06-26T16:03:50.338Z,12.13
2019-06-26T16:06:24.057Z,12.28
2019-06-26T16:08:57.807Z,11.83
2019-06-26T16:11:31.441Z,12.03
2019-06-26T16:14:05.403Z,11.18
2019-06-26T16:16:40.811Z,11.80
2019-06-26T16:19:24.842Z,11.35
2019-06-26T16:21:58.497Z,10.82
2019-06-26T16:24:32.089Z,11.70
2019-06-26T16:27:05.756Z,12.68
2019-06-26T16:29:39.347Z,12.28
2019-06-26T16:32:12.975Z,11.85
2019-06-26T16:34:46.729Z,12.73
2019-06-26T16:37:20.367Z,12.20
2019-06-26T16:39:54.155Z,12.75
2019-06-26T16:42:27.831Z,11.70
2019-06-26T16:45:01.605Z,12.58
2019-06-26T16:47:35.278Z,12.63
2019-06-26T16:50:09.573Z,11.48
2019-06-26T16:52:49.326Z,12.10
2019-06-26T16:55:18.537Z,11.60
2019-06-26T16:57:52.188Z,12.75
2019-06-26T17:00:26.868Z,12.70
2019-06-26T17:03:00.533Z,12.43
2019-06-26T17:05:34.160Z,12.10
2019-06-26T17:08:07.867Z,12.07
2019-06-26T17:10:41.497Z,12.63
2019-06-26T17:13:15.147Z,12.37
2019-06-26T17:15:48.728Z,12.03
2019-06-26T17:18:22.498Z,12.60
2019-06-26T17:20:56.186Z,12.35
2019-06-26T17:23:29.858Z,13.45
2019-06-26T17:26:03.615Z,13.85
2019-06-26T17:28:37.341Z,10.72
2019-06-26T17:31:10.995Z,10.03
2019-06-26T17:33:44.597Z,9.95
2019-06-26T17:36:18.260Z,9.30
2019-06-26T17:38:51.928Z,6.42
2019-06-26T17:41:25.648Z,6.62
2019-06-26T17:43:59.467Z,7.10
2019-06-26T17:46:33.146Z,5.67
2019-06-26T17:49:07.117Z,6.33
2019-06-26T17:51:40.798Z,6.00
2019-06-26T17:54:14.435Z,6.10
2019-06-26T17:56:48.013Z,5.80
2019-06-26T17:59:21.771Z,6.50
2019-06-26T18:01:55.383Z,6.42
2019-06-26T18:04:29.046Z,5.75
2019-06-26T18:07:03.028Z,6.22
2019-06-26T18:09:36.914Z,6.47
2019-06-26T18:12:10.590Z,6.50
2019-06-26T18:14:44.235Z,6.40
2019-06-26T18:17:21.936Z,6.47
2019-06-26T18:19:54.020Z,6.35
2019-06-26T18:22:27.736Z,8.30
2019-06-26T18:25:01.512Z,6.50
2019-06-26T18:27:35.381Z,6.08
2019-06-26T18:30:10.953Z,5.28
2019-06-26T18:32:44.544Z,5.55
2019-06-26T18:35:18.296Z,5.87
2019-06-26T18:37:51.900Z,6.00
2019-06-26T18:40:25.534Z,5.67
2019-06-26T18:42:59.173Z,5.30
2019-06-26T18:45:32.899Z,5.35
2019-06-26T18:48:06.633Z,5.28
2019-06-26T18:50:40.261Z,5.70
2019-06-26T18:53:13.954Z,6.17
2019-06-26T18:55:47.589Z,6.25
2019-06-26T18:58:21.196Z,6.35
2019-06-26T19:00:54.785Z,6.33
2019-06-26T19:03:28.418Z,5.90
2019-06-26T19:06:02.410Z,6.05
2019-06-26T19:08:36.207Z,6.08
2019-06-26T19:11:09.812Z,5.45
2019-06-26T19:13:43.483Z,6.80
2019-06-26T19:16:17.174Z,6.00
2019-06-26T19:18:50.860Z,6.67
2019-06-26T19:21:24.444Z,6.20
2019-06-26T19:24:09.470Z,6.47
2019-06-26T19:26:33.352Z,7.90
2019-06-26T19:29:07.538Z,9.38
2019-06-26T19:31:41.317Z,9.45
2019-06-26T19:34:14.977Z,9.90
2019-06-26T19:36:50.425Z,9.73
2019-06-26T19:39:23.924Z,10.38
2019-06-26T19:41:57.626Z,10.65
2019-06-26T19:44:31.277Z,10.53
2019-06-26T19:47:05.054Z,10.40
2019-06-26T19:49:38.828Z,10.70
2019-06-26T19:52:12.437Z,10.38
2019-06-26T19:54:46.474Z,10.45
2019-06-26T19:57:20.798Z,10.20
2019-06-26T19:59:54.469Z,10.48
2019-06-26T20:02:28.128Z,10.30
2019-06-26T20:05:01.744Z,10.00
2019-06-26T20:07:35.372Z,9.90
2019-06-26T20:10:10.781Z,10.15
2019-06-26T20:12:44.482Z,10.25
2019-06-26T20:15:18.054Z,9.78
2019-06-26T20:17:51.670Z,10.40
2019-06-26T20:20:25.319Z,10.98
2019-06-26T20:22:58.901Z,9.78
2019-06-26T20:25:32.653Z,9.53
2019-06-26T20:28:06.350Z,9.58
2019-06-26T20:30:39.932Z,9.65
2019-06-26T20:33:13.529Z,9.28
2019-06-26T20:35:47.138Z,9.20
2019-06-26T20:38:20.914Z,8.48
2019-06-26T20:40:54.507Z,9.00
2019-06-26T20:43:28.244Z,8.08
2019-06-26T20:46:01.919Z,8.45
2019-06-26T20:48:35.615Z,8.45
2019-06-26T20:51:09.373Z,8.15
2019-06-26T20:53:42.981Z,7.53
2019-06-26T20:56:16.575Z,8.00
2019-06-26T20:58:50.185Z,7.62
2019-06-26T21:01:23.870Z,7.83
2019-06-26T21:03:57.484Z,7.87
2019-06-26T21:06:31.134Z,7.65
2019-06-26T21:09:06.016Z,7.78
2019-06-26T21:11:39.773Z,8.15
2019-06-26T21:14:13.485Z,7.95
2019-06-26T21:16:47.170Z,8.60
2019-06-26T21:19:20.866Z,8.08
2019-06-26T21:21:54.506Z,8.65
2019-06-26T21:24:28.205Z,8.28
2019-06-26T21:27:01.835Z,8.40
2019-06-26T21:29:35.426Z,8.45
2019-06-26T21:32:09.180Z,8.30
2019-06-26T21:34:42.782Z,8.25
2019-06-26T21:37:16.525Z,8.98
2019-06-26T21:39:50.185Z,8.50
2019-06-26T21:42:23.769Z,9.33
2019-06-26T21:44:57.402Z,8.50
2019-06-26T21:47:31.025Z,8.45
2019-06-26T21:50:05.943Z,8.55
2019-06-26T21:52:39.626Z,8.88
2019-06-26T21:55:13.272Z,8.40
2019-06-26T21:57:46.856Z,7.53
2019-06-26T22:00:20.749Z,7.72
2019-06-26T22:02:57.518Z,7.33
2019-06-26T22:05:29.812Z,8.60
2019-06-26T22:08:03.577Z,7.90
2019-06-26T22:10:37.257Z,8.00
2019-06-26T22:13:10.917Z,7.90
2019-06-26T22:15:44.546Z,7.10
2019-06-26T22:18:18.213Z,7.57
2019-06-26T22:20:51.845Z,7.73
2019-06-26T22:23:25.440Z,7.90
2019-06-26T22:25:59.150Z,7.90
2019-06-26T22:28:32.806Z,6.93
2019-06-26T22:31:06.941Z,7.50
2019-06-26T22:33:40.638Z,7.33
2019-06-26T22:36:14.314Z,7.12
2019-06-26T22:38:48.006Z,7.43
2019-06-26T22:41:21.630Z,7.77
2019-06-26T22:43:55.253Z,7.07
2019-06-26T22:46:28.896Z,7.50
2019-06-26T22:49:02.488Z,6.47
2019-06-26T22:51:36.117Z,6.27
2019-06-26T22:54:09.721Z,6.60
2019-06-26T22:56:43.461Z,6.17
2019-06-26T22:59:17.109Z,5.87
2019-06-26T23:01:50.826Z,5.93
2019-06-26T23:04:25.389Z,6.33
2019-06-26T23:06:59.000Z,5.53
2019-06-26T23:09:32.773Z,5.83
2019-06-26T23:12:06.513Z,5.77
2019-06-26T23:14:40.163Z,6.07
2019-06-26T23:17:13.907Z,5.73
2019-06-26T23:19:47.613Z,6.23
2019-06-26T23:22:21.205Z,6.00
2019-06-26T23:24:54.842Z,6.03
2019-06-26T23:27:28.461Z,5.83
2019-06-26T23:30:02.376Z,5.87
2019-06-26T23:32:36.321Z,6.13
2019-06-26T23:35:09.966Z,6.13
2019-06-26T23:37:43.707Z,6.00
2019-06-26T23:40:17.419Z,5.70
2019-06-26T23:42:51.017Z,5.87
2019-06-26T23:45:24.679Z,5.80
2019-06-26T23:47:58.287Z,6.20
2019-06-26T23:50:31.986Z,5.63
2019-06-26T23:53:05.638Z,5.70
2019-06-26T23:55:39.245Z,5.67
2019-06-26T23:58:13.020Z,5.77
